createdAt,value
2023-05-05T00:00:29.678Z,3.78
2023-05-05T00:03:15.151Z,3.70
2023-05-05T00:06:00.923Z,4.00
2023-05-05T00:08:46.755Z,4.10
2023-05-05T00:11:31.827Z,4.28
2023-05-05T00:14:17.310Z,3.83
2023-05-05T00:17:04.020Z,3.85
2023-05-05T00:19:49.927Z,3.60
2023-05-05T00:22:34.998Z,3.65
2023-05-05T00:25:20.702Z,3.70
2023-05-05T00:28:05.819Z,3.65
2023-05-05T00:30:51.716Z,3.88
2023-05-05T00:33:36.805Z,3.63
2023-05-05T00:36:22.897Z,5.07
2023-05-05T00:39:08.493Z,5.88
2023-05-05T00:41:54.269Z,5.55
2023-05-05T00:44:41.574Z,6.00
2023-05-05T00:47:27.057Z,5.50
2023-05-05T00:50:26.955Z,6.60
2023-05-05T00:53:12.517Z,7.75
2023-05-05T00:55:58.109Z,7.75
2023-05-05T00:58:43.955Z,7.60
2023-05-05T01:01:29.448Z,8.90
2023-05-05T01:04:14.904Z,7.35
2023-05-05T01:07:18.372Z,8.88
2023-05-05T01:10:27.115Z,7.13
2023-05-05T01:13:54.258Z,8.27
2023-05-05T01:16:55.766Z,7.13
2023-05-05T01:19:43.854Z,7.10
2023-05-05T01:22:38.169Z,6.65
2023-05-05T01:26:05.720Z,6.18
2023-05-05T01:29:30.742Z,6.78
2023-05-05T01:32:22.005Z,5.25
2023-05-05T01:35:19.341Z,4.82
2023-05-05T01:38:22.827Z,4.43
2023-05-05T01:41:26.443Z,4.20
2023-05-05T01:44:14.194Z,4.43
2023-05-05T01:47:00.776Z,3.88
2023-05-05T01:49:47.840Z,3.17
2023-05-05T01:52:35.773Z,3.10
2023-05-05T01:55:23.174Z,2.70
2023-05-05T01:58:10.861Z,2.63
2023-05-05T02:00:58.155Z,2.53
2023-05-05T02:03:44.625Z,2.28
2023-05-05T02:06:32.414Z,2.72
2023-05-05T02:09:17.828Z,2.45
2023-05-05T02:12:05.524Z,2.42
2023-05-05T02:14:52.188Z,2.20
2023-05-05T02:17:40.456Z,2.10
2023-05-05T02:20:27.935Z,2.00
2023-05-05T02:23:13.028Z,1.92
2023-05-05T02:26:06.970Z,1.90
2023-05-05T02:29:05.131Z,2.25
2023-05-05T02:31:55.189Z,2.47
2023-05-05T02:34:49.365Z,2.63
2023-05-05T02:37:36.834Z,2.50
2023-05-05T02:40:28.445Z,1.92
2023-05-05T02:43:19.483Z,1.88
2023-05-05T02:46:05.851Z,1.83
2023-05-05T02:48:51.727Z,1.70
2023-05-05T02:51:37.140Z,1.48
2023-05-05T02:54:27.976Z,1.60
2023-05-05T02:57:18.258Z,1.35
2023-05-05T03:00:30.703Z,1.70
2023-05-05T03:03:25.892Z,1.60
2023-05-05T03:06:12.508Z,1.60
2023-05-05T03:09:22.687Z,1.40
2023-05-05T03:12:11.126Z,1.40
2023-05-05T03:15:08.611Z,1.65
2023-05-05T03:17:55.583Z,1.90
2023-05-05T03:20:41.986Z,1.88
2023-05-05T03:23:32.556Z,1.65
2023-05-05T03:26:18.879Z,2.20
2023-05-05T03:29:06.891Z,1.85
2023-05-05T03:31:54.175Z,1.98
2023-05-05T03:34:39.511Z,2.08
2023-05-05T03:37:24.812Z,2.20
2023-05-05T03:40:10.978Z,2.42
2023-05-05T03:42:56.331Z,2.15
2023-05-05T03:45:42.042Z,2.75
2023-05-05T03:48:27.771Z,2.80
2023-05-05T03:51:13.597Z,3.03
2023-05-05T03:53:59.876Z,3.70
2023-05-05T03:56:45.692Z,3.60
2023-05-05T03:59:31.202Z,4.32
2023-05-05T04:02:18.609Z,4.50
2023-05-05T04:05:04.873Z,4.00
2023-05-05T04:07:50.245Z,4.57
2023-05-05T04:10:35.784Z,5.32
2023-05-05T04:13:21.109Z,5.10
2023-05-05T04:16:08.664Z,5.38
2023-05-05T04:18:55.819Z,5.95
2023-05-05T04:21:41.043Z,6.38
2023-05-05T04:24:26.927Z,5.70
2023-05-05T04:27:13.323Z,5.95
2023-05-05T04:29:58.839Z,6.03
2023-05-05T04:32:44.839Z,5.20
2023-05-05T04:35:30.101Z,5.28
2023-05-05T04:38:16.153Z,5.43
2023-05-05T04:41:06.305Z,4.95
2023-05-05T04:43:52.880Z,4.78
2023-05-05T04:46:38.602Z,4.85
2023-05-05T04:49:24.055Z,4.93
2023-05-05T04:52:09.390Z,5.13
2023-05-05T04:54:55.171Z,5.35
2023-05-05T04:57:40.776Z,4.38
2023-05-05T05:00:26.473Z,5.10
2023-05-05T05:03:12.191Z,5.30
2023-05-05T05:05:57.778Z,5.18
2023-05-05T05:08:43.257Z,6.07
2023-05-05T05:11:28.660Z,6.10
2023-05-05T05:14:14.334Z,5.65
2023-05-05T05:16:59.742Z,5.57
2023-05-05T05:19:45.094Z,5.28
2023-05-05T05:22:31.324Z,5.07
2023-05-05T05:25:18.084Z,4.82
2023-05-05T05:28:09.448Z,4.75
2023-05-05T05:31:00.905Z,4.50
2023-05-05T05:33:46.311Z,4.80
2023-05-05T05:36:33.233Z,5.28
2023-05-05T05:39:18.509Z,5.05
2023-05-05T05:42:03.976Z,5.10
2023-05-05T05:44:49.265Z,4.80
2023-05-05T05:47:34.779Z,4.03
2023-05-05T05:50:20.584Z,4.95
2023-05-05T05:53:06.275Z,4.40
2023-05-05T05:55:51.750Z,3.88
2023-05-05T05:58:37.698Z,3.58
2023-05-05T06:01:22.945Z,3.47
2023-05-05T06:04:09.177Z,3.63
2023-05-05T06:06:56.585Z,3.83
2023-05-05T06:09:42.496Z,3.75
2023-05-05T06:12:27.855Z,3.50
2023-05-05T06:15:13.126Z,3.90
2023-05-05T06:17:59.090Z,3.10
2023-05-05T06:20:44.932Z,3.20
2023-05-05T06:23:32.832Z,3.53
2023-05-05T06:26:22.574Z,3.33
2023-05-05T06:29:08.259Z,3.20
2023-05-05T06:31:54.846Z,3.50
2023-05-05T06:34:40.286Z,3.47
2023-05-05T06:37:25.659Z,2.60
2023-05-05T06:40:11.465Z,2.70
2023-05-05T06:42:56.944Z,2.70
2023-05-05T06:45:47.229Z,3.00
2023-05-05T06:48:32.641Z,2.70
2023-05-05T06:51:18.190Z,3.05
2023-05-05T06:54:03.562Z,2.50
2023-05-05T06:56:48.939Z,2.28
2023-05-05T06:59:34.253Z,2.00
2023-05-05T07:02:20.007Z,2.10
2023-05-05T07:05:05.823Z,1.83
2023-05-05T07:07:52.768Z,2.03
2023-05-05T07:10:38.230Z,2.20
2023-05-05T07:13:23.601Z,1.92
2023-05-05T07:16:09.028Z,1.90
2023-05-05T07:18:54.404Z,1.77
2023-05-05T07:21:40.062Z,1.50
2023-05-05T07:24:25.494Z,1.40
2023-05-05T07:27:10.920Z,1.25
2023-05-05T07:29:56.525Z,1.77
2023-05-05T07:32:41.792Z,1.73
2023-05-05T07:35:27.769Z,1.50
2023-05-05T07:38:13.209Z,1.70
2023-05-05T07:40:58.608Z,1.73
2023-05-05T07:43:44.691Z,1.40
2023-05-05T07:46:30.113Z,1.17
2023-05-05T07:49:15.616Z,1.20
2023-05-05T07:52:01.084Z,1.20
2023-05-05T07:54:47.760Z,0.90
2023-05-05T07:57:33.173Z,0.90
2023-05-05T08:00:19.440Z,0.82
2023-05-05T08:03:05.052Z,0.60
2023-05-05T08:05:51.795Z,0.70
2023-05-05T08:08:37.918Z,0.57
2023-05-05T08:11:23.298Z,0.70
2023-05-05T08:14:08.476Z,0.70
2023-05-05T08:16:53.978Z,0.65
2023-05-05T08:19:39.259Z,0.65
2023-05-05T08:22:24.853Z,0.70
2023-05-05T08:25:11.132Z,0.80
2023-05-05T08:27:56.855Z,0.70
2023-05-05T08:30:42.801Z,1.00
2023-05-05T08:33:27.974Z,0.60
2023-05-05T08:36:13.640Z,0.65
2023-05-05T08:38:59.969Z,0.82
2023-05-05T08:41:45.150Z,0.60
2023-05-05T08:44:30.619Z,0.90
2023-05-05T08:47:16.236Z,0.80
2023-05-05T08:50:02.135Z,0.70
2023-05-05T08:52:52.429Z,0.60
2023-05-05T08:55:50.675Z,0.68
2023-05-05T08:58:37.567Z,0.40
2023-05-05T09:01:23.439Z,0.50
2023-05-05T09:04:10.838Z,0.47
2023-05-05T09:06:58.337Z,0.50
2023-05-05T09:09:44.116Z,0.45
2023-05-05T09:12:31.773Z,0.47
2023-05-05T09:15:17.129Z,0.40
2023-05-05T09:18:05.254Z,0.65
2023-05-05T09:20:51.092Z,0.50
2023-05-05T09:23:36.371Z,0.50
2023-05-05T09:26:21.712Z,0.70
2023-05-05T09:29:07.087Z,0.50
2023-05-05T09:32:08.483Z,0.60
2023-05-05T09:37:44.764Z,0.60
2023-05-05T09:40:48.480Z,0.60
2023-05-05T09:43:51.748Z,0.60
2023-05-05T09:46:37.675Z,0.43
2023-05-05T09:49:25.210Z,0.40
2023-05-05T09:52:16.862Z,0.47
2023-05-05T09:55:02.115Z,0.50
2023-05-05T09:57:47.639Z,0.88
2023-05-05T10:00:39.556Z,0.40
2023-05-05T10:03:26.222Z,0.40
2023-05-05T10:06:11.688Z,0.50
2023-05-05T10:09:03.655Z,0.43
2023-05-05T10:11:49.660Z,0.50
2023-05-05T10:14:36.167Z,0.60
2023-05-05T10:17:23.465Z,0.40
2023-05-05T10:20:12.856Z,0.47
2023-05-05T10:23:00.566Z,0.50
2023-05-05T10:26:00.931Z,0.32
2023-05-05T10:28:51.464Z,0.40
2023-05-05T10:31:47.595Z,0.50
2023-05-05T10:34:47.406Z,0.50
2023-05-05T10:37:33.628Z,0.40
2023-05-05T10:40:22.120Z,0.40
2023-05-05T10:43:07.949Z,0.50
2023-05-05T10:45:54.394Z,0.35
2023-05-05T10:48:49.488Z,0.50
2023-05-05T10:52:27.528Z,0.60
2023-05-05T10:55:19.340Z,0.50
2023-05-05T10:58:04.547Z,0.50
2023-05-05T11:00:51.024Z,0.50
2023-05-05T11:03:36.469Z,0.60
2023-05-05T11:06:21.821Z,0.43
2023-05-05T11:09:29.602Z,0.47
2023-05-05T11:12:15.866Z,0.50
2023-05-05T11:15:27.445Z,0.55
2023-05-05T11:18:29.836Z,0.50
2023-05-05T11:21:16.720Z,0.57
2023-05-05T11:24:28.501Z,0.40
2023-05-05T11:27:13.831Z,0.50
2023-05-05T11:30:07.760Z,0.57
2023-05-05T11:33:31.016Z,0.70
2023-05-05T11:36:18.068Z,0.52
2023-05-05T11:39:29.377Z,0.63
2023-05-05T11:42:24.748Z,0.50
2023-05-05T11:45:24.372Z,0.60
2023-05-05T11:48:26.950Z,0.50
2023-05-05T11:51:13.662Z,0.95
2023-05-05T11:53:59.324Z,0.50
2023-05-05T11:56:55.801Z,0.50
2023-05-05T11:59:56.857Z,0.60
2023-05-05T12:02:42.251Z,0.60
2023-05-05T12:05:27.581Z,0.40
2023-05-05T12:08:14.670Z,0.70
2023-05-05T12:11:10.672Z,0.80
2023-05-05T12:14:12.025Z,1.02
2023-05-05T12:17:15.304Z,1.05
2023-05-05T12:20:00.929Z,1.13
2023-05-05T12:22:46.586Z,1.50
2023-05-05T12:25:36.810Z,1.58
2023-05-05T12:28:21.982Z,1.50
2023-05-05T12:31:07.576Z,1.70
2023-05-05T12:33:53.155Z,1.80
2023-05-05T12:36:39.051Z,1.70
2023-05-05T12:39:37.622Z,2.22
2023-05-05T12:42:23.499Z,2.60
2023-05-05T12:45:17.374Z,2.38
2023-05-05T12:48:22.082Z,2.50
2023-05-05T12:51:16.142Z,3.30
2023-05-05T12:54:05.977Z,3.25
2023-05-05T12:56:51.225Z,2.83
2023-05-05T12:59:36.589Z,2.88
2023-05-05T13:02:33.535Z,2.40
2023-05-05T13:05:36.520Z,2.40
2023-05-05T13:08:22.552Z,2.75
2023-05-05T13:11:07.623Z,2.58
2023-05-05T13:13:53.200Z,2.25
2023-05-05T13:16:38.710Z,2.30
2023-05-05T13:19:24.963Z,2.00
2023-05-05T13:22:10.572Z,2.72
2023-05-05T13:24:56.213Z,2.70
2023-05-05T13:27:41.620Z,2.25
2023-05-05T13:30:27.024Z,1.70
2023-05-05T13:33:12.264Z,1.80
2023-05-05T13:35:57.804Z,1.73
2023-05-05T13:38:43.131Z,2.15
2023-05-05T13:41:28.510Z,2.13
2023-05-05T13:44:14.366Z,2.08
2023-05-05T13:46:59.757Z,2.20
2023-05-05T13:49:45.473Z,2.70
2023-05-05T13:52:31.793Z,2.30
2023-05-05T13:55:18.453Z,2.38
2023-05-05T13:58:03.928Z,3.17
2023-05-05T14:00:49.302Z,4.35
2023-05-05T14:03:34.746Z,3.88
2023-05-05T14:06:20.289Z,3.20
2023-05-05T14:09:07.679Z,3.40
2023-05-05T14:11:53.454Z,2.97
2023-05-05T14:14:38.557Z,3.08
2023-05-05T14:17:24.335Z,2.80
2023-05-05T14:20:09.906Z,2.40
2023-05-05T14:22:56.310Z,2.13
2023-05-05T14:25:42.597Z,1.98
2023-05-05T14:28:28.032Z,1.80
2023-05-05T14:31:13.590Z,1.70
2023-05-05T14:33:59.065Z,1.83
2023-05-05T14:36:44.478Z,1.55
2023-05-05T14:39:29.922Z,1.65
2023-05-05T14:42:15.803Z,1.35
2023-05-05T14:45:03.409Z,1.70
2023-05-05T14:47:48.724Z,1.30
2023-05-05T14:50:33.885Z,1.23
2023-05-05T14:53:19.677Z,1.45
2023-05-05T14:56:05.082Z,1.80
2023-05-05T14:58:50.616Z,1.40
2023-05-05T15:01:36.475Z,1.50
2023-05-05T15:04:21.891Z,1.73
2023-05-05T15:07:07.233Z,1.42
2023-05-05T15:09:52.778Z,1.50
2023-05-05T15:12:38.845Z,1.48
2023-05-05T15:15:24.121Z,1.42
2023-05-05T15:18:09.517Z,1.50
2023-05-05T15:20:54.868Z,1.92
2023-05-05T15:23:40.408Z,1.20
2023-05-05T15:26:26.538Z,1.65
2023-05-05T15:29:12.042Z,1.40
2023-05-05T15:31:57.547Z,1.45
2023-05-05T15:34:44.721Z,1.20
2023-05-05T15:37:30.128Z,1.30
2023-05-05T15:40:15.284Z,1.10
2023-05-05T15:43:00.819Z,1.20
2023-05-05T15:45:46.292Z,0.93
2023-05-05T15:48:31.669Z,0.90
2023-05-05T15:51:17.079Z,1.02
2023-05-05T15:54:02.611Z,0.90
2023-05-05T15:56:48.098Z,0.80
2023-05-05T15:59:33.438Z,0.90
2023-05-05T16:02:19.512Z,0.82
2023-05-05T16:05:04.979Z,0.85
2023-05-05T16:07:50.135Z,0.90
2023-05-05T16:10:36.756Z,0.80
2023-05-05T16:13:22.059Z,0.80
2023-05-05T16:16:07.610Z,0.75
2023-05-05T16:18:52.890Z,0.77
2023-05-05T16:21:38.314Z,1.00
2023-05-05T16:24:23.724Z,0.80
2023-05-05T16:27:09.223Z,0.90
2023-05-05T16:29:54.676Z,1.30
2023-05-05T16:32:40.168Z,1.20
2023-05-05T16:35:25.470Z,1.00
2023-05-05T16:38:11.450Z,1.15
2023-05-05T16:40:56.890Z,1.10
2023-05-05T16:43:42.452Z,1.30
2023-05-05T16:46:27.790Z,0.98
2023-05-05T16:49:13.304Z,1.00
2023-05-05T16:51:58.785Z,1.60
2023-05-05T16:54:44.160Z,1.60
2023-05-05T16:57:29.600Z,1.52
2023-05-05T17:00:15.511Z,1.52
2023-05-05T17:03:00.998Z,1.55
2023-05-05T17:05:52.862Z,1.25
2023-05-05T17:08:38.306Z,1.38
2023-05-05T17:11:23.660Z,1.48
2023-05-05T17:14:09.143Z,1.30
2023-05-05T17:16:54.475Z,1.33
2023-05-05T17:19:39.992Z,1.70
2023-05-05T17:22:26.477Z,1.70
2023-05-05T17:25:12.095Z,1.80
2023-05-05T17:27:57.861Z,1.30
2023-05-05T17:30:43.158Z,1.48
2023-05-05T17:33:28.834Z,1.60
2023-05-05T17:36:14.136Z,1.55
2023-05-05T17:38:59.633Z,1.95
2023-05-05T17:41:44.983Z,1.80
2023-05-05T17:44:31.525Z,1.95
2023-05-05T17:47:18.026Z,1.98
2023-05-05T17:50:03.647Z,2.10
2023-05-05T17:52:48.753Z,2.70
2023-05-05T17:55:34.392Z,2.15
2023-05-05T17:58:19.651Z,2.10
2023-05-05T18:01:05.093Z,2.38
2023-05-05T18:03:50.429Z,2.50
2023-05-05T18:06:35.941Z,2.78
2023-05-05T18:09:21.109Z,2.67
2023-05-05T18:12:07.757Z,2.55
2023-05-05T18:14:52.962Z,2.45
2023-05-05T18:17:38.866Z,2.28
2023-05-05T18:20:24.299Z,2.42
2023-05-05T18:23:09.706Z,2.53
2023-05-05T18:25:55.001Z,2.78
2023-05-05T18:28:40.348Z,2.85
2023-05-05T18:31:27.231Z,2.53
2023-05-05T18:34:12.454Z,2.85
2023-05-05T18:36:57.760Z,2.70
2023-05-05T18:39:44.133Z,2.85
2023-05-05T18:42:29.625Z,2.63
2023-05-05T18:45:15.312Z,2.65
2023-05-05T18:48:19.340Z,2.40
2023-05-05T18:51:05.040Z,3.60
2023-05-05T18:53:50.129Z,3.58
2023-05-05T18:56:35.447Z,4.30
2023-05-05T18:59:21.679Z,4.15
2023-05-05T19:02:07.978Z,4.40
2023-05-05T19:04:53.142Z,4.53
2023-05-05T19:07:38.554Z,5.82
2023-05-05T19:10:24.008Z,5.00
2023-05-05T19:13:10.736Z,5.00
2023-05-05T19:15:57.123Z,4.78
2023-05-05T19:18:42.806Z,5.50
2023-05-05T19:21:28.497Z,4.53
2023-05-05T19:24:13.787Z,4.63
2023-05-05T19:26:59.170Z,5.40
2023-05-05T19:29:45.224Z,4.97
2023-05-05T19:32:30.684Z,4.75
2023-05-05T19:35:16.228Z,4.68
2023-05-05T19:38:01.732Z,4.40
2023-05-05T19:40:47.172Z,4.53
2023-05-05T19:43:32.454Z,4.57
2023-05-05T19:46:18.904Z,4.22
2023-05-05T19:49:04.405Z,4.00
2023-05-05T19:51:51.975Z,3.75
2023-05-05T19:54:38.271Z,3.50
2023-05-05T19:57:23.767Z,3.47
2023-05-05T20:00:10.848Z,3.40
2023-05-05T20:02:56.258Z,3.13
2023-05-05T20:05:41.503Z,3.00
2023-05-05T20:08:26.937Z,3.38
2023-05-05T20:11:14.864Z,3.40
2023-05-05T20:14:00.413Z,3.15
2023-05-05T20:16:45.768Z,3.55
2023-05-05T20:19:31.249Z,3.88
2023-05-05T20:22:17.312Z,3.97
2023-05-05T20:25:02.461Z,4.28
2023-05-05T20:27:47.780Z,4.60
2023-05-05T20:30:33.315Z,4.30
2023-05-05T20:33:18.753Z,4.18
2023-05-05T20:36:04.606Z,3.72
2023-05-05T20:38:49.822Z,3.90
2023-05-05T20:41:36.178Z,3.70
2023-05-05T20:44:21.918Z,3.67
2023-05-05T20:47:07.469Z,3.78
2023-05-05T20:49:52.762Z,3.35
2023-05-05T20:52:38.165Z,3.38
2023-05-05T20:55:23.805Z,3.60
2023-05-05T20:58:09.080Z,3.60
2023-05-05T21:00:54.669Z,3.33
2023-05-05T21:03:40.012Z,3.22
2023-05-05T21:06:25.545Z,3.20
2023-05-05T21:09:10.801Z,3.30
2023-05-05T21:11:56.234Z,3.10
2023-05-05T21:14:45.307Z,3.40
2023-05-05T21:17:30.664Z,3.80
2023-05-05T21:20:16.869Z,4.03
2023-05-05T21:23:01.987Z,4.10
2023-05-05T21:25:47.411Z,3.88
2023-05-05T21:28:32.677Z,3.20
2023-05-05T21:34:06.416Z,3.00
2023-05-05T21:36:51.823Z,2.92
2023-05-05T21:39:37.556Z,3.00
2023-05-05T21:42:22.996Z,2.90
2023-05-05T21:45:09.825Z,2.65
2023-05-05T21:47:54.920Z,2.90
2023-05-05T21:50:40.230Z,2.78
2023-05-05T21:53:25.650Z,2.58
2023-05-05T21:56:10.941Z,2.55
2023-05-05T21:58:56.389Z,2.58
2023-05-05T22:01:41.817Z,2.55
2023-05-05T22:04:27.372Z,2.30
2023-05-05T22:07:12.976Z,2.30
2023-05-05T22:09:58.238Z,2.20
2023-05-05T22:12:43.640Z,2.30
2023-05-05T22:15:35.655Z,2.22
2023-05-05T22:18:28.143Z,2.40
2023-05-05T22:21:13.886Z,2.40
2023-05-05T22:23:59.455Z,2.45
2023-05-05T22:26:44.990Z,3.00
2023-05-05T22:29:30.525Z,2.95
2023-05-05T22:32:15.935Z,3.03
2023-05-05T22:35:01.358Z,3.22
2023-05-05T22:37:46.484Z,3.60
2023-05-05T22:40:32.050Z,3.50
2023-05-05T22:43:17.596Z,4.40
2023-05-05T22:46:02.939Z,4.57
2023-05-05T22:48:48.963Z,4.47
2023-05-05T22:51:34.588Z,4.88
2023-05-05T22:54:19.672Z,4.50
2023-05-05T22:57:05.847Z,4.65
2023-05-05T22:59:51.291Z,4.32
2023-05-05T23:02:37.631Z,3.92
2023-05-05T23:05:23.133Z,4.68
2023-05-05T23:08:08.453Z,5.32
2023-05-05T23:10:54.035Z,4.43
2023-05-05T23:13:39.346Z,4.53
2023-05-05T23:16:24.789Z,4.80
2023-05-05T23:19:10.060Z,4.45
2023-05-05T23:21:55.608Z,4.28
2023-05-05T23:24:41.205Z,4.72
2023-05-05T23:27:26.299Z,5.15
2023-05-05T23:30:12.403Z,4.43
2023-05-05T23:32:57.938Z,4.53
2023-05-05T23:35:45.401Z,5.00
2023-05-05T23:38:30.504Z,4.82
2023-05-05T23:41:16.031Z,5.03
2023-05-05T23:44:01.531Z,5.18
2023-05-05T23:46:46.963Z,4.28
2023-05-05T23:49:32.304Z,5.40
2023-05-05T23:52:17.709Z,5.63
2023-05-05T23:55:03.317Z,5.32
2023-05-05T23:57:48.514Z,5.15
